This is the latest recevied weather packets stored in our database for station/object DB0RV-13. If no packets are shown the sender has not sent any weather packets the latest 10 day(s).
| Time | Temp. | Humidity | Pressure | Rain* | Wind** | Luminosity | Snow |
|---|---|---|---|---|---|---|---|
| 1777690201 | 6.67° C | 67% | 1021.7 hPa | - | - | - | - |
| 1777689902 | 6.67° C | 67% | 1021.7 hPa | - | - | - | - |
| 1777689602 | 6.67° C | 67% | 1021.8 hPa | - | - | - | - |
| 1777689301 | 6.67° C | 65% | 1021.7 hPa | - | - | - | - |
| 1777689002 | 7.22° C | 64% | 1021.8 hPa | - | - | - | - |
| 1777688702 | 7.78° C | 63% | 1021.9 hPa | - | - | - | - |
| 1777688401 | 7.78° C | 61% | 1021.7 hPa | - | - | - | - |
| 1777688102 | 8.33° C | 60% | 1021.7 hPa | - | - | - | - |
| 1777687803 | 8.33° C | 60% | 1021.7 hPa | - | - | - | - |
| 1777687501 | 8.89° C | 57% | 1021.8 hPa | - | - | - | - |
| 1777687205 | 9.44° C | 57% | 1021.6 hPa | - | - | - | - |
| 1777686902 | 8.89° C | 59% | 1021.7 hPa | - | - | - | - |
| 1777686602 | 8.89° C | 59% | 1021.7 hPa | - | - | - | - |
| 1777686302 | 9.44° C | 57% | 1021.7 hPa | - | - | - | - |
| 1777686002 | 9.44° C | 57% | 1021.8 hPa | - | - | - | - |
| 1777685701 | 8.89° C | 59% | 1021.8 hPa | - | - | - | - |
| 1777685402 | 8.89° C | 58% | 1021.9 hPa | - | - | - | - |
| 1777685102 | 8.89° C | 59% | 1021.7 hPa | - | - | - | - |
| 1777684801 | 8.89° C | 58% | 1021.8 hPa | - | - | - | - |
| 1777684502 | 8.89° C | 58% | 1021.8 hPa | - | - | - | - |
| 1777684202 | 8.89° C | 59% | 1021.8 hPa | - | - | - | - |
| 1777683901 | 8.33° C | 60% | 1021.9 hPa | - | - | - | - |
| 1777683602 | 8.89° C | 58% | 1021.9 hPa | - | - | - | - |
| 1777683307 | 9.44° C | 57% | 1021.9 hPa | - | - | - | - |
| 1777683001 | 9.44° C | 56% | 1021.9 hPa | - | - | - | - |
* Rain since midnight (hover to see other rain measurements)
** Current wind speed in m/s (hover to see current wind gust speed)